sensor_id;sensor_type;location;lat;lon;timestamp;temperature;humidity
1526;DHT22;756;49.982;8.240;2022-08-14T00:01:30;24.60;54.70
1526;DHT22;756;49.982;8.240;2022-08-14T00:03:58;24.60;54.60
1526;DHT22;756;49.982;8.240;2022-08-14T00:06:26;24.60;54.90
1526;DHT22;756;49.982;8.240;2022-08-14T00:08:55;24.60;55.00
1526;DHT22;756;49.982;8.240;2022-08-14T00:11:26;24.60;55.00
1526;DHT22;756;49.982;8.240;2022-08-14T00:13:57;24.60;55.30
1526;DHT22;756;49.982;8.240;2022-08-14T00:16:24;24.60;55.40
1526;DHT22;756;49.982;8.240;2022-08-14T00:19:10;24.60;55.40
1526;DHT22;756;49.982;8.240;2022-08-14T00:21:50;24.60;55.80
1526;DHT22;756;49.982;8.240;2022-08-14T00:24:18;24.60;56.00
1526;DHT22;756;49.982;8.240;2022-08-14T00:26:56;24.70;55.90
1526;DHT22;756;49.982;8.240;2022-08-14T00:29:30;24.70;56.10
1526;DHT22;756;49.982;8.240;2022-08-14T00:32:06;24.70;56.30
1526;DHT22;756;49.982;8.240;2022-08-14T00:34:53;24.60;56.70
1526;DHT22;756;49.982;8.240;2022-08-14T00:37:22;24.60;57.30
1526;DHT22;756;49.982;8.240;2022-08-14T00:39:48;24.50;57.30
1526;DHT22;756;49.982;8.240;2022-08-14T00:42:18;24.50;57.50
1526;DHT22;756;49.982;8.240;2022-08-14T00:45:08;24.50;57.40
1526;DHT22;756;49.982;8.240;2022-08-14T00:47:38;24.50;57.60
1526;DHT22;756;49.982;8.240;2022-08-14T00:50:13;24.40;57.80
1526;DHT22;756;49.982;8.240;2022-08-14T00:52:48;24.40;57.80
1526;DHT22;756;49.982;8.240;2022-08-14T00:55:17;24.40;58.00
1526;DHT22;756;49.982;8.240;2022-08-14T00:57:46;24.30;58.20
1526;DHT22;756;49.982;8.240;2022-08-14T01:00:33;24.20;58.60
1526;DHT22;756;49.982;8.240;2022-08-14T01:03:16;24.20;58.70
1526;DHT22;756;49.982;8.240;2022-08-14T01:05:48;24.20;58.90
1526;DHT22;756;49.982;8.240;2022-08-14T01:08:20;24.10;59.20
1526;DHT22;756;49.982;8.240;2022-08-14T01:11:07;24.10;59.50
1526;DHT22;756;49.982;8.240;2022-08-14T01:13:39;24.10;59.70
1526;DHT22;756;49.982;8.240;2022-08-14T01:16:14;24.00;59.80
1526;DHT22;756;49.982;8.240;2022-08-14T01:18:45;24.00;59.80
1526;DHT22;756;49.982;8.240;2022-08-14T01:21:35;24.00;59.90
1526;DHT22;756;49.982;8.240;2022-08-14T01:24:05;24.00;60.10
1526;DHT22;756;49.982;8.240;2022-08-14T01:26:36;24.00;60.40
1526;DHT22;756;49.982;8.240;2022-08-14T01:29:05;24.00;60.10
1526;DHT22;756;49.982;8.240;2022-08-14T01:31:37;23.90;60.40
1526;DHT22;756;49.982;8.240;2022-08-14T01:34:24;23.80;60.70
1526;DHT22;756;49.982;8.240;2022-08-14T01:37:11;23.70;61.00
1526;DHT22;756;49.982;8.240;2022-08-14T01:39:42;23.70;61.50
1526;DHT22;756;49.982;8.240;2022-08-14T01:42:09;23.60;61.50
1526;DHT22;756;49.982;8.240;2022-08-14T01:44:57;23.70;61.50
1526;DHT22;756;49.982;8.240;2022-08-14T01:47:23;23.70;61.20
1526;DHT22;756;49.982;8.240;2022-08-14T01:49:50;23.70;61.40
1526;DHT22;756;49.982;8.240;2022-08-14T01:52:31;23.70;61.40
1526;DHT22;756;49.982;8.240;2022-08-14T01:55:18;23.70;61.50
1526;DHT22;756;49.982;8.240;2022-08-14T01:57:46;23.70;61.30
1526;DHT22;756;49.982;8.240;2022-08-14T02:00:28;23.70;61.10
1526;DHT22;756;49.982;8.240;2022-08-14T02:03:01;23.60;61.40
1526;DHT22;756;49.982;8.240;2022-08-14T02:05:28;23.50;61.20
1526;DHT22;756;49.982;8.240;2022-08-14T02:08:01;23.50;61.20
1526;DHT22;756;49.982;8.240;2022-08-14T02:10:38;23.50;61.30
1526;DHT22;756;49.982;8.240;2022-08-14T02:13:14;23.40;61.50
1526;DHT22;756;49.982;8.240;2022-08-14T02:15:42;23.30;61.50
1526;DHT22;756;49.982;8.240;2022-08-14T02:18:10;23.40;61.70
1526;DHT22;756;49.982;8.240;2022-08-14T02:20:41;23.40;61.90
1526;DHT22;756;49.982;8.240;2022-08-14T02:23:08;23.30;61.90
1526;DHT22;756;49.982;8.240;2022-08-14T02:25:36;23.30;62.00
1526;DHT22;756;49.982;8.240;2022-08-14T02:28:05;23.30;62.20
1526;DHT22;756;49.982;8.240;2022-08-14T02:30:52;23.30;62.20
1526;DHT22;756;49.982;8.240;2022-08-14T02:33:20;23.30;62.10
1526;DHT22;756;49.982;8.240;2022-08-14T02:35:54;23.20;62.10
1526;DHT22;756;49.982;8.240;2022-08-14T02:38:42;23.10;62.30
1526;DHT22;756;49.982;8.240;2022-08-14T02:41:11;23.00;62.80
1526;DHT22;756;49.982;8.240;2022-08-14T02:43:40;23.00;62.80
1526;DHT22;756;49.982;8.240;2022-08-14T02:46:12;22.90;62.90
1526;DHT22;756;49.982;8.240;2022-08-14T02:48:50;22.80;63.60
1526;DHT22;756;49.982;8.240;2022-08-14T02:51:33;22.80;63.70
1526;DHT22;756;49.982;8.240;2022-08-14T02:54:03;22.70;63.80
1526;DHT22;756;49.982;8.240;2022-08-14T02:56:30;22.70;64.00
1526;DHT22;756;49.982;8.240;2022-08-14T02:59:17;22.70;63.80
1526;DHT22;756;49.982;8.240;2022-08-14T03:01:46;22.70;63.90
1526;DHT22;756;49.982;8.240;2022-08-14T03:04:21;22.60;64.00
1526;DHT22;756;49.982;8.240;2022-08-14T03:06:49;22.60;64.30
1526;DHT22;756;49.982;8.240;2022-08-14T03:09:32;22.50;64.40
1526;DHT22;756;49.982;8.240;2022-08-14T03:12:19;22.50;64.70
1526;DHT22;756;49.982;8.240;2022-08-14T03:14:57;22.50;64.90
1526;DHT22;756;49.982;8.240;2022-08-14T03:17:25;22.50;64.90
1526;DHT22;756;49.982;8.240;2022-08-14T03:19:57;22.40;65.10
1526;DHT22;756;49.982;8.240;2022-08-14T03:22:25;22.30;65.40
1526;DHT22;756;49.982;8.240;2022-08-14T03:24:55;22.30;65.10
1526;DHT22;756;49.982;8.240;2022-08-14T03:27:22;22.30;65.10
1526;DHT22;756;49.982;8.240;2022-08-14T03:30:01;22.40;65.20
1526;DHT22;756;49.982;8.240;2022-08-14T03:32:31;22.40;65.00
1526;DHT22;756;49.982;8.240;2022-08-14T03:35:00;22.50;64.90
1526;DHT22;756;49.982;8.240;2022-08-14T03:37:34;22.50;64.70
1526;DHT22;756;49.982;8.240;2022-08-14T03:40:22;22.50;64.90
1526;DHT22;756;49.982;8.240;2022-08-14T03:42:50;22.50;64.80
1526;DHT22;756;49.982;8.240;2022-08-14T03:45:17;22.50;64.70
1526;DHT22;756;49.982;8.240;2022-08-14T03:48:13;22.60;64.50
1526;DHT22;756;49.982;8.240;2022-08-14T03:50:57;22.70;64.30
1526;DHT22;756;49.982;8.240;2022-08-14T03:53:26;22.70;64.30
1526;DHT22;756;49.982;8.240;2022-08-14T03:55:56;22.60;64.50
1526;DHT22;756;49.982;8.240;2022-08-14T03:58:24;22.50;64.70
1526;DHT22;756;49.982;8.240;2022-08-14T04:01:02;22.50;64.90
1526;DHT22;756;49.982;8.240;2022-08-14T04:03:32;22.50;64.90
1526;DHT22;756;49.982;8.240;2022-08-14T04:06:03;22.60;64.70
1526;DHT22;756;49.982;8.240;2022-08-14T04:08:34;22.60;64.80
1526;DHT22;756;49.982;8.240;2022-08-14T04:11:02;22.50;65.10
1526;DHT22;756;49.982;8.240;2022-08-14T04:13:38;22.40;65.40
1526;DHT22;756;49.982;8.240;2022-08-14T04:16:13;22.50;65.50
1526;DHT22;756;49.982;8.240;2022-08-14T04:18:41;22.50;65.40
1526;DHT22;756;49.982;8.240;2022-08-14T04:21:09;22.50;65.30
1526;DHT22;756;49.982;8.240;2022-08-14T04:23:36;22.50;65.30
1526;DHT22;756;49.982;8.240;2022-08-14T04:26:07;22.50;65.30
1526;DHT22;756;49.982;8.240;2022-08-14T04:28:42;22.40;65.60
1526;DHT22;756;49.982;8.240;2022-08-14T04:31:29;22.40;65.70
1526;DHT22;756;49.982;8.240;2022-08-14T04:34:16;22.40;65.80
1526;DHT22;756;49.982;8.240;2022-08-14T04:36:53;22.40;65.70
1526;DHT22;756;49.982;8.240;2022-08-14T04:39:38;22.40;66.00
1526;DHT22;756;49.982;8.240;2022-08-14T04:42:25;22.40;66.00
1526;DHT22;756;49.982;8.240;2022-08-14T04:45:19;22.40;66.10
1526;DHT22;756;49.982;8.240;2022-08-14T04:47:46;22.30;66.30
1526;DHT22;756;49.982;8.240;2022-08-14T04:50:37;22.30;66.60
1526;DHT22;756;49.982;8.240;2022-08-14T04:53:13;22.30;66.70
1526;DHT22;756;49.982;8.240;2022-08-14T04:55:42;22.30;66.90
1526;DHT22;756;49.982;8.240;2022-08-14T04:58:11;22.30;66.90
1526;DHT22;756;49.982;8.240;2022-08-14T05:00:58;22.20;67.00
1526;DHT22;756;49.982;8.240;2022-08-14T05:03:30;22.20;67.50
1526;DHT22;756;49.982;8.240;2022-08-14T05:05:59;22.20;67.50
1526;DHT22;756;49.982;8.240;2022-08-14T05:08:26;22.20;67.40
1526;DHT22;756;49.982;8.240;2022-08-14T05:11:14;22.30;67.10
1526;DHT22;756;49.982;8.240;2022-08-14T05:13:41;22.20;67.30
1526;DHT22;756;49.982;8.240;2022-08-14T05:16:29;22.20;67.40
1526;DHT22;756;49.982;8.240;2022-08-14T05:18:57;22.20;67.30
1526;DHT22;756;49.982;8.240;2022-08-14T05:21:44;22.30;67.50
1526;DHT22;756;49.982;8.240;2022-08-14T05:24:27;22.40;67.50
1526;DHT22;756;49.982;8.240;2022-08-14T05:26:54;22.40;67.30
1526;DHT22;756;49.982;8.240;2022-08-14T05:29:22;22.50;67.10
1526;DHT22;756;49.982;8.240;2022-08-14T05:31:48;22.50;66.90
1526;DHT22;756;49.982;8.240;2022-08-14T05:34:21;22.60;67.10
1526;DHT22;756;49.982;8.240;2022-08-14T05:36:54;22.60;67.00
1526;DHT22;756;49.982;8.240;2022-08-14T05:39:28;22.70;66.60
1526;DHT22;756;49.982;8.240;2022-08-14T05:41:56;22.80;66.30
1526;DHT22;756;49.982;8.240;2022-08-14T05:44:23;22.80;66.30
1526;DHT22;756;49.982;8.240;2022-08-14T05:46:55;22.80;66.40
1526;DHT22;756;49.982;8.240;2022-08-14T05:49:22;22.80;66.30
1526;DHT22;756;49.982;8.240;2022-08-14T05:51:58;22.80;66.50
1526;DHT22;756;49.982;8.240;2022-08-14T05:54:27;22.70;66.80
1526;DHT22;756;49.982;8.240;2022-08-14T05:57:01;22.70;66.90
1526;DHT22;756;49.982;8.240;2022-08-14T05:59:27;22.70;66.90
1526;DHT22;756;49.982;8.240;2022-08-14T06:02:04;22.80;66.80
1526;DHT22;756;49.982;8.240;2022-08-14T06:04:31;22.90;66.70
1526;DHT22;756;49.982;8.240;2022-08-14T06:06:58;23.00;66.40
1526;DHT22;756;49.982;8.240;2022-08-14T06:09:25;23.00;66.20
1526;DHT22;756;49.982;8.240;2022-08-14T06:11:52;23.10;66.00
1526;DHT22;756;49.982;8.240;2022-08-14T06:14:19;23.20;65.90
1526;DHT22;756;49.982;8.240;2022-08-14T06:16:50;23.20;66.00
1526;DHT22;756;49.982;8.240;2022-08-14T06:19:19;23.20;66.10
1526;DHT22;756;49.982;8.240;2022-08-14T06:21:48;23.20;65.90
1526;DHT22;756;49.982;8.240;2022-08-14T06:24:23;23.30;65.80
1526;DHT22;756;49.982;8.240;2022-08-14T06:26:51;23.40;65.40
1526;DHT22;756;49.982;8.240;2022-08-14T06:29:30;23.50;65.20
1526;DHT22;756;49.982;8.240;2022-08-14T06:31:59;23.70;64.80
1526;DHT22;756;49.982;8.240;2022-08-14T06:34:46;23.70;64.70
1526;DHT22;756;49.982;8.240;2022-08-14T06:37:45;23.90;64.30
1526;DHT22;756;49.982;8.240;2022-08-14T06:40:18;23.90;64.00
1526;DHT22;756;49.982;8.240;2022-08-14T06:42:58;23.90;63.90
1526;DHT22;756;49.982;8.240;2022-08-14T06:45:30;24.00;63.90
1526;DHT22;756;49.982;8.240;2022-08-14T06:47:57;24.00;63.70
1526;DHT22;756;49.982;8.240;2022-08-14T06:50:25;24.10;63.70
1526;DHT22;756;49.982;8.240;2022-08-14T06:52:58;24.00;63.80
1526;DHT22;756;49.982;8.240;2022-08-14T06:55:25;24.00;63.60
1526;DHT22;756;49.982;8.240;2022-08-14T06:57:55;24.00;63.70
1526;DHT22;756;49.982;8.240;2022-08-14T07:00:25;23.90;63.70
1526;DHT22;756;49.982;8.240;2022-08-14T07:02:57;23.80;64.00
1526;DHT22;756;49.982;8.240;2022-08-14T07:05:45;23.80;64.10
1526;DHT22;756;49.982;8.240;2022-08-14T07:08:27;23.80;64.30
1526;DHT22;756;49.982;8.240;2022-08-14T07:10:59;23.90;64.10
1526;DHT22;756;49.982;8.240;2022-08-14T07:13:27;24.00;63.80
1526;DHT22;756;49.982;8.240;2022-08-14T07:15:57;24.10;63.50
1526;DHT22;756;49.982;8.240;2022-08-14T07:18:28;24.20;63.30
1526;DHT22;756;49.982;8.240;2022-08-14T07:20:56;24.30;62.80
1526;DHT22;756;49.982;8.240;2022-08-14T07:23:23;24.30;62.70
1526;DHT22;756;49.982;8.240;2022-08-14T07:25:53;24.30;62.70
1526;DHT22;756;49.982;8.240;2022-08-14T07:28:25;24.40;62.20
1526;DHT22;756;49.982;8.240;2022-08-14T07:30:55;24.50;62.30
1526;DHT22;756;49.982;8.240;2022-08-14T07:36:05;24.80;61.20
1526;DHT22;756;49.982;8.240;2022-08-14T07:38:52;24.90;61.10
1526;DHT22;756;49.982;8.240;2022-08-14T07:41:19;24.90;60.90
1526;DHT22;756;49.982;8.240;2022-08-14T07:43:47;24.90;61.00
1526;DHT22;756;49.982;8.240;2022-08-14T07:46:23;24.90;60.90
1526;DHT22;756;49.982;8.240;2022-08-14T07:48:56;25.00;60.80
1526;DHT22;756;49.982;8.240;2022-08-14T07:51:23;25.10;60.50
1526;DHT22;756;49.982;8.240;2022-08-14T07:53:52;25.20;60.50
1526;DHT22;756;49.982;8.240;2022-08-14T07:56:23;25.30;59.90
1526;DHT22;756;49.982;8.240;2022-08-14T07:59:10;25.40;59.80
1526;DHT22;756;49.982;8.240;2022-08-14T08:01:39;25.50;59.60
1526;DHT22;756;49.982;8.240;2022-08-14T08:04:21;25.60;59.10
1526;DHT22;756;49.982;8.240;2022-08-14T08:06:51;25.60;59.30
1526;DHT22;756;49.982;8.240;2022-08-14T08:09:23;25.80;58.70
1526;DHT22;756;49.982;8.240;2022-08-14T08:11:50;25.90;58.50
1526;DHT22;756;49.982;8.240;2022-08-14T08:14:23;26.20;57.90
1526;DHT22;756;49.982;8.240;2022-08-14T08:16:53;26.30;57.40
1526;DHT22;756;49.982;8.240;2022-08-14T08:19:20;26.30;57.10
1526;DHT22;756;49.982;8.240;2022-08-14T08:21:47;26.50;56.90
1526;DHT22;756;49.982;8.240;2022-08-14T08:24:14;26.60;56.80
1526;DHT22;756;49.982;8.240;2022-08-14T08:26:46;26.70;56.60
1526;DHT22;756;49.982;8.240;2022-08-14T08:29:21;26.80;55.60
1526;DHT22;756;49.982;8.240;2022-08-14T08:31:55;26.90;55.10
1526;DHT22;756;49.982;8.240;2022-08-14T08:34:44;27.00;54.60
1526;DHT22;756;49.982;8.240;2022-08-14T08:37:13;27.20;54.50
1526;DHT22;756;49.982;8.240;2022-08-14T08:39:47;27.20;54.30
1526;DHT22;756;49.982;8.240;2022-08-14T08:42:30;27.40;53.70
1526;DHT22;756;49.982;8.240;2022-08-14T08:45:18;27.50;53.50
1526;DHT22;756;49.982;8.240;2022-08-14T08:47:46;27.50;52.50
1526;DHT22;756;49.982;8.240;2022-08-14T08:52:50;27.70;52.50
1526;DHT22;756;49.982;8.240;2022-08-14T08:55:36;27.90;52.20
1526;DHT22;756;49.982;8.240;2022-08-14T08:58:13;27.90;51.80
1526;DHT22;756;49.982;8.240;2022-08-14T09:00:49;28.00;51.10
1526;DHT22;756;49.982;8.240;2022-08-14T09:03:22;28.10;50.90
1526;DHT22;756;49.982;8.240;2022-08-14T09:05:54;28.10;50.50
1526;DHT22;756;49.982;8.240;2022-08-14T09:08:27;28.10;50.50
1526;DHT22;756;49.982;8.240;2022-08-14T09:11:03;28.20;50.20
1526;DHT22;756;49.982;8.240;2022-08-14T09:13:49;28.30;50.20
1526;DHT22;756;49.982;8.240;2022-08-14T09:16:23;28.50;49.80
1526;DHT22;756;49.982;8.240;2022-08-14T09:18:52;28.60;49.20
1526;DHT22;756;49.982;8.240;2022-08-14T09:21:21;28.50;49.40
1526;DHT22;756;49.982;8.240;2022-08-14T09:23:52;28.70;49.30
1526;DHT22;756;49.982;8.240;2022-08-14T09:26:40;28.80;48.70
1526;DHT22;756;49.982;8.240;2022-08-14T09:29:09;28.90;48.80
1526;DHT22;756;49.982;8.240;2022-08-14T09:31:45;29.00;48.90
1526;DHT22;756;49.982;8.240;2022-08-14T09:37:44;29.40;48.40
1526;DHT22;756;49.982;8.240;2022-08-14T09:43:48;29.40;48.30
1526;DHT22;756;49.982;8.240;2022-08-14T09:46:17;29.60;47.70
1526;DHT22;756;49.982;8.240;2022-08-14T09:49:17;29.80;47.30
1526;DHT22;756;49.982;8.240;2022-08-14T09:54:50;30.00;47.30
1526;DHT22;756;49.982;8.240;2022-08-14T09:57:25;30.10;46.70
1526;DHT22;756;49.982;8.240;2022-08-14T09:59:54;29.90;47.10
1526;DHT22;756;49.982;8.240;2022-08-14T10:02:26;29.90;47.10
1526;DHT22;756;49.982;8.240;2022-08-14T10:05:05;30.20;46.70
1526;DHT22;756;49.982;8.240;2022-08-14T10:07:46;30.30;46.30
1526;DHT22;756;49.982;8.240;2022-08-14T10:10:36;30.50;45.50
1526;DHT22;756;49.982;8.240;2022-08-14T10:13:22;30.30;46.10
1526;DHT22;756;49.982;8.240;2022-08-14T10:15:49;30.60;46.00
1526;DHT22;756;49.982;8.240;2022-08-14T10:18:18;30.70;45.10
1526;DHT22;756;49.982;8.240;2022-08-14T10:20:54;30.50;44.90
1526;DHT22;756;49.982;8.240;2022-08-14T10:23:25;30.50;44.70
1526;DHT22;756;49.982;8.240;2022-08-14T10:26:05;30.50;44.70
1526;DHT22;756;49.982;8.240;2022-08-14T10:28:41;30.50;44.70
1526;DHT22;756;49.982;8.240;2022-08-14T10:31:28;30.60;44.00
1526;DHT22;756;49.982;8.240;2022-08-14T10:34:12;30.70;43.40
1526;DHT22;756;49.982;8.240;2022-08-14T10:36:42;30.60;43.10
1526;DHT22;756;49.982;8.240;2022-08-14T10:39:21;30.60;43.30
1526;DHT22;756;49.982;8.240;2022-08-14T10:42:09;30.60;43.50
1526;DHT22;756;49.982;8.240;2022-08-14T10:44:46;30.40;42.80
1526;DHT22;756;49.982;8.240;2022-08-14T10:47:18;30.30;43.40
1526;DHT22;756;49.982;8.240;2022-08-14T10:50:06;30.40;43.40
1526;DHT22;756;49.982;8.240;2022-08-14T10:52:41;30.50;43.50
1526;DHT22;756;49.982;8.240;2022-08-14T10:55:11;30.40;42.60
1526;DHT22;756;49.982;8.240;2022-08-14T10:57:48;30.30;42.60
1526;DHT22;756;49.982;8.240;2022-08-14T11:00:21;30.30;42.40
1526;DHT22;756;49.982;8.240;2022-08-14T11:03:06;30.30;42.80
1526;DHT22;756;49.982;8.240;2022-08-14T11:05:43;30.30;42.80
1526;DHT22;756;49.982;8.240;2022-08-14T11:08:12;30.10;42.60
1526;DHT22;756;49.982;8.240;2022-08-14T11:10:47;30.10;42.40
1526;DHT22;756;49.982;8.240;2022-08-14T11:13:26;30.00;42.80
1526;DHT22;756;49.982;8.240;2022-08-14T11:15:57;30.00;42.30
1526;DHT22;756;49.982;8.240;2022-08-14T11:18:28;29.90;42.50
1526;DHT22;756;49.982;8.240;2022-08-14T11:21:06;29.80;42.00
1526;DHT22;756;49.982;8.240;2022-08-14T11:23:36;29.90;42.50
1526;DHT22;756;49.982;8.240;2022-08-14T11:26:07;29.80;42.50
1526;DHT22;756;49.982;8.240;2022-08-14T11:28:41;29.70;42.60
1526;DHT22;756;49.982;8.240;2022-08-14T11:31:17;29.60;42.80
1526;DHT22;756;49.982;8.240;2022-08-14T11:33:49;29.60;41.80
1526;DHT22;756;49.982;8.240;2022-08-14T11:36:16;29.60;40.20
1526;DHT22;756;49.982;8.240;2022-08-14T11:38:48;29.60;40.40
1526;DHT22;756;49.982;8.240;2022-08-14T11:41:17;29.70;41.60
1526;DHT22;756;49.982;8.240;2022-08-14T11:43:46;29.80;42.50
1526;DHT22;756;49.982;8.240;2022-08-14T11:46:24;29.80;41.50
1526;DHT22;756;49.982;8.240;2022-08-14T11:49:03;29.70;41.70
1526;DHT22;756;49.982;8.240;2022-08-14T11:51:32;29.70;41.00
1526;DHT22;756;49.982;8.240;2022-08-14T11:54:20;29.60;40.50
1526;DHT22;756;49.982;8.240;2022-08-14T11:57:01;29.50;40.20
1526;DHT22;756;49.982;8.240;2022-08-14T11:59:30;29.50;40.60
1526;DHT22;756;49.982;8.240;2022-08-14T12:02:16;29.40;41.40
1526;DHT22;756;49.982;8.240;2022-08-14T12:05:03;29.40;41.00
1526;DHT22;756;49.982;8.240;2022-08-14T12:07:34;29.40;41.50
1526;DHT22;756;49.982;8.240;2022-08-14T12:10:08;29.50;41.80
1526;DHT22;756;49.982;8.240;2022-08-14T12:12:56;29.60;41.60
1526;DHT22;756;49.982;8.240;2022-08-14T12:15:33;29.60;41.40
1526;DHT22;756;49.982;8.240;2022-08-14T12:18:01;29.70;41.60
1526;DHT22;756;49.982;8.240;2022-08-14T12:20:32;29.60;41.40
1526;DHT22;756;49.982;8.240;2022-08-14T12:23:01;29.60;41.50
1526;DHT22;756;49.982;8.240;2022-08-14T12:25:31;29.60;41.50
1526;DHT22;756;49.982;8.240;2022-08-14T12:28:02;29.70;41.60
1526;DHT22;756;49.982;8.240;2022-08-14T12:30:37;29.70;41.70
1526;DHT22;756;49.982;8.240;2022-08-14T12:33:29;29.80;41.30
1526;DHT22;756;49.982;8.240;2022-08-14T12:36:01;29.80;41.40
1526;DHT22;756;49.982;8.240;2022-08-14T12:38:32;29.80;41.30
1526;DHT22;756;49.982;8.240;2022-08-14T12:41:03;29.80;41.10
1526;DHT22;756;49.982;8.240;2022-08-14T12:43:54;29.70;41.10
1526;DHT22;756;49.982;8.240;2022-08-14T12:48:57;29.80;40.80
1526;DHT22;756;49.982;8.240;2022-08-14T12:51:26;29.90;40.80
1526;DHT22;756;49.982;8.240;2022-08-14T12:53:54;29.80;40.60
1526;DHT22;756;49.982;8.240;2022-08-14T12:56:26;29.70;40.30
1526;DHT22;756;49.982;8.240;2022-08-14T12:59:00;29.80;40.70
1526;DHT22;756;49.982;8.240;2022-08-14T13:01:29;29.90;41.00
1526;DHT22;756;49.982;8.240;2022-08-14T13:04:16;30.00;40.80
1526;DHT22;756;49.982;8.240;2022-08-14T13:06:45;29.90;40.70
1526;DHT22;756;49.982;8.240;2022-08-14T13:09:17;29.90;40.30
1526;DHT22;756;49.982;8.240;2022-08-14T13:11:47;29.90;40.30
1526;DHT22;756;49.982;8.240;2022-08-14T13:14:37;29.90;40.60
1526;DHT22;756;49.982;8.240;2022-08-14T13:17:04;29.80;40.50
1526;DHT22;756;49.982;8.240;2022-08-14T13:19:33;29.80;40.70
1526;DHT22;756;49.982;8.240;2022-08-14T13:22:00;29.80;40.80
1526;DHT22;756;49.982;8.240;2022-08-14T13:24:37;29.90;40.50
1526;DHT22;756;49.982;8.240;2022-08-14T13:27:05;30.00;40.60
1526;DHT22;756;49.982;8.240;2022-08-14T13:29:39;30.10;40.50
1526;DHT22;756;49.982;8.240;2022-08-14T13:32:13;30.20;40.70
1526;DHT22;756;49.982;8.240;2022-08-14T13:34:41;30.20;40.30
1526;DHT22;756;49.982;8.240;2022-08-14T13:37:13;30.30;40.10
1526;DHT22;756;49.982;8.240;2022-08-14T13:39:48;30.40;39.70
1526;DHT22;756;49.982;8.240;2022-08-14T13:42:25;30.40;40.00
1526;DHT22;756;49.982;8.240;2022-08-14T13:44:58;30.40;40.20
1526;DHT22;756;49.982;8.240;2022-08-14T13:47:27;30.10;39.70
1526;DHT22;756;49.982;8.240;2022-08-14T13:49:58;30.10;40.00
1526;DHT22;756;49.982;8.240;2022-08-14T13:52:40;30.10;40.30
1526;DHT22;756;49.982;8.240;2022-08-14T13:55:25;30.10;40.20
1526;DHT22;756;49.982;8.240;2022-08-14T13:58:00;30.10;40.70
1526;DHT22;756;49.982;8.240;2022-08-14T14:00:35;30.20;40.30
1526;DHT22;756;49.982;8.240;2022-08-14T14:03:23;30.20;40.40
1526;DHT22;756;49.982;8.240;2022-08-14T14:05:56;30.10;40.00
1526;DHT22;756;49.982;8.240;2022-08-14T14:08:23;30.20;40.20
1526;DHT22;756;49.982;8.240;2022-08-14T14:11:11;30.10;41.00
1526;DHT22;756;49.982;8.240;2022-08-14T14:13:42;30.10;39.90
1526;DHT22;756;49.982;8.240;2022-08-14T14:16:12;30.10;39.60
1526;DHT22;756;49.982;8.240;2022-08-14T14:18:50;30.20;39.60
1526;DHT22;756;49.982;8.240;2022-08-14T14:21:24;30.10;39.20
1526;DHT22;756;49.982;8.240;2022-08-14T14:23:54;30.20;38.80
1526;DHT22;756;49.982;8.240;2022-08-14T14:26:22;30.30;39.00
1526;DHT22;756;49.982;8.240;2022-08-14T14:28:54;30.20;39.10
1526;DHT22;756;49.982;8.240;2022-08-14T14:31:26;30.30;39.20
1526;DHT22;756;49.982;8.240;2022-08-14T14:34:02;30.20;39.40
1526;DHT22;756;49.982;8.240;2022-08-14T14:36:45;30.30;39.50
1526;DHT22;756;49.982;8.240;2022-08-14T14:39:20;30.30;39.30
1526;DHT22;756;49.982;8.240;2022-08-14T14:41:51;30.30;39.40
1526;DHT22;756;49.982;8.240;2022-08-14T14:44:27;30.30;39.70
1526;DHT22;756;49.982;8.240;2022-08-14T14:46:57;30.30;39.80
1526;DHT22;756;49.982;8.240;2022-08-14T14:49:25;30.20;39.50
1526;DHT22;756;49.982;8.240;2022-08-14T14:52:12;30.10;39.40
1526;DHT22;756;49.982;8.240;2022-08-14T14:54:56;30.10;39.40
1526;DHT22;756;49.982;8.240;2022-08-14T14:57:26;30.10;39.30
1526;DHT22;756;49.982;8.240;2022-08-14T15:00:04;30.20;38.80
1526;DHT22;756;49.982;8.240;2022-08-14T15:05:03;30.50;39.30
1526;DHT22;756;49.982;8.240;2022-08-14T15:07:30;30.50;39.30
1526;DHT22;756;49.982;8.240;2022-08-14T15:09:58;30.50;39.30
1526;DHT22;756;49.982;8.240;2022-08-14T15:12:26;30.50;39.30
1526;DHT22;756;49.982;8.240;2022-08-14T15:15:12;30.50;39.30
1526;DHT22;756;49.982;8.240;2022-08-14T15:17:41;30.40;39.00
1526;DHT22;756;49.982;8.240;2022-08-14T15:20:11;30.40;39.10
1526;DHT22;756;49.982;8.240;2022-08-14T15:22:55;30.40;39.20
1526;DHT22;756;49.982;8.240;2022-08-14T15:25:22;30.30;38.70
1526;DHT22;756;49.982;8.240;2022-08-14T15:27:48;30.20;38.10
1526;DHT22;756;49.982;8.240;2022-08-14T15:30:19;30.10;37.60
1526;DHT22;756;49.982;8.240;2022-08-14T15:32:57;30.20;38.00
1526;DHT22;756;49.982;8.240;2022-08-14T15:35:26;30.20;38.20
1526;DHT22;756;49.982;8.240;2022-08-14T15:38:00;30.20;38.30
1526;DHT22;756;49.982;8.240;2022-08-14T15:40:39;30.20;37.70
1526;DHT22;756;49.982;8.240;2022-08-14T15:43:07;30.30;37.60
1526;DHT22;756;49.982;8.240;2022-08-14T15:45:41;30.30;37.60
1526;DHT22;756;49.982;8.240;2022-08-14T15:48:08;30.30;37.70
1526;DHT22;756;49.982;8.240;2022-08-14T15:50:48;30.30;37.70
1526;DHT22;756;49.982;8.240;2022-08-14T15:53:17;30.30;37.80
1526;DHT22;756;49.982;8.240;2022-08-14T15:55:45;30.40;37.60
1526;DHT22;756;49.982;8.240;2022-08-14T15:58:11;30.40;37.90
1526;DHT22;756;49.982;8.240;2022-08-14T16:00:40;30.40;38.30
1526;DHT22;756;49.982;8.240;2022-08-14T16:03:25;30.50;39.00
1526;DHT22;756;49.982;8.240;2022-08-14T16:06:08;30.50;39.30
1526;DHT22;756;49.982;8.240;2022-08-14T16:08:45;30.50;39.10
1526;DHT22;756;49.982;8.240;2022-08-14T16:11:16;30.50;39.20
1526;DHT22;756;49.982;8.240;2022-08-14T16:13:45;30.50;39.40
1526;DHT22;756;49.982;8.240;2022-08-14T16:16:23;30.40;38.60
1526;DHT22;756;49.982;8.240;2022-08-14T16:19:11;30.40;38.50
1526;DHT22;756;49.982;8.240;2022-08-14T16:21:42;30.30;38.60
1526;DHT22;756;49.982;8.240;2022-08-14T16:24:31;30.40;38.60
1526;DHT22;756;49.982;8.240;2022-08-14T16:26:59;30.40;39.40
1526;DHT22;756;49.982;8.240;2022-08-14T16:29:31;30.40;40.80
1526;DHT22;756;49.982;8.240;2022-08-14T16:32:00;30.30;41.50
1526;DHT22;756;49.982;8.240;2022-08-14T16:34:47;30.30;41.20
1526;DHT22;756;49.982;8.240;2022-08-14T16:37:22;30.20;41.20
1526;DHT22;756;49.982;8.240;2022-08-14T16:40:00;30.20;39.50
1526;DHT22;756;49.982;8.240;2022-08-14T16:42:28;30.20;39.50
1526;DHT22;756;49.982;8.240;2022-08-14T16:45:22;30.20;39.90
1526;DHT22;756;49.982;8.240;2022-08-14T16:47:50;30.20;40.30
1526;DHT22;756;49.982;8.240;2022-08-14T16:50:18;30.10;40.10
1526;DHT22;756;49.982;8.240;2022-08-14T16:53:05;30.10;40.60
1526;DHT22;756;49.982;8.240;2022-08-14T16:55:35;30.10;41.70
1526;DHT22;756;49.982;8.240;2022-08-14T16:58:21;30.10;41.60
1526;DHT22;756;49.982;8.240;2022-08-14T17:01:11;30.00;41.50
1526;DHT22;756;49.982;8.240;2022-08-14T17:04:02;30.00;40.10
1526;DHT22;756;49.982;8.240;2022-08-14T17:09:07;29.90;41.60
1526;DHT22;756;49.982;8.240;2022-08-14T17:11:50;29.90;41.00
1526;DHT22;756;49.982;8.240;2022-08-14T17:14:20;29.90;40.60
1526;DHT22;756;49.982;8.240;2022-08-14T17:16:54;29.90;40.70
1526;DHT22;756;49.982;8.240;2022-08-14T17:19:22;29.90;40.80
1526;DHT22;756;49.982;8.240;2022-08-14T17:21:50;29.90;40.70
1526;DHT22;756;49.982;8.240;2022-08-14T17:24:18;29.80;40.80
1526;DHT22;756;49.982;8.240;2022-08-14T17:27:09;29.80;41.00